createdAt,value
2016-10-30T00:00:30.916Z,99.99
2016-10-30T00:01:30.901Z,99.99
2016-10-30T00:02:31.197Z,99.99
2016-10-30T00:03:30.875Z,99.99
2016-10-30T00:04:30.854Z,99.99
2016-10-30T00:05:30.839Z,99.99
2016-10-30T00:06:30.828Z,99.99
2016-10-30T00:07:30.805Z,99.99
2016-10-30T00:08:30.790Z,99.99
2016-10-30T00:09:30.776Z,99.99
2016-10-30T00:10:30.756Z,99.99
2016-10-30T00:11:30.738Z,99.99
2016-10-30T00:12:30.725Z,99.99
2016-10-30T00:13:30.711Z,99.99
2016-10-30T00:14:30.691Z,99.99
2016-10-30T00:15:30.675Z,99.99
2016-10-30T00:16:30.660Z,99.99
2016-10-30T00:17:30.646Z,99.99
2016-10-30T00:18:30.627Z,99.99
2016-10-30T00:19:30.607Z,99.99
2016-10-30T00:20:30.595Z,99.99
2016-10-30T00:21:30.580Z,99.99
2016-10-30T00:22:30.564Z,99.99
2016-10-30T00:23:30.547Z,99.99
2016-10-30T00:24:30.529Z,99.99
2016-10-30T00:25:30.516Z,99.99
2016-10-30T00:26:30.498Z,99.99
2016-10-30T00:27:30.488Z,99.99
2016-10-30T00:28:30.461Z,99.99
2016-10-30T00:29:30.445Z,99.99
2016-10-30T00:30:30.432Z,99.99
2016-10-30T00:31:30.418Z,99.99
2016-10-30T00:32:30.400Z,99.99
2016-10-30T00:33:30.381Z,99.99
2016-10-30T00:34:30.678Z,99.99
2016-10-30T00:35:30.663Z,99.99
2016-10-30T00:36:30.335Z,99.99
2016-10-30T00:37:30.316Z,99.99
2016-10-30T00:38:30.304Z,99.99
2016-10-30T00:39:30.283Z,99.99
2016-10-30T00:40:30.269Z,99.99
2016-10-30T00:41:30.257Z,99.99
2016-10-30T00:42:30.237Z,99.99
2016-10-30T00:43:30.220Z,99.99
2016-10-30T00:44:30.203Z,99.99
2016-10-30T00:45:30.188Z,99.99
2016-10-30T00:46:30.174Z,99.99
2016-10-30T00:47:30.468Z,99.99
2016-10-30T00:48:30.143Z,99.99
2016-10-30T00:49:30.124Z,99.99
2016-10-30T00:50:30.105Z,99.99
2016-10-30T00:51:30.088Z,99.99
2016-10-30T00:52:30.072Z,99.99
2016-10-30T00:53:30.055Z,99.99
2016-10-30T00:54:30.040Z,99.99
2016-10-30T00:55:30.024Z,99.99
2016-10-30T00:56:30.004Z,99.99
2016-10-30T00:57:29.991Z,99.99
2016-10-30T00:58:29.974Z,99.99
2016-10-30T00:59:29.961Z,99.99
2016-10-30T01:00:29.944Z,99.99
2016-10-30T01:01:29.930Z,99.99
2016-10-30T01:02:29.911Z,99.99
2016-10-30T01:03:29.901Z,99.99
2016-10-30T01:04:29.885Z,99.99
2016-10-30T01:05:29.863Z,99.99
2016-10-30T01:06:29.845Z,99.99
2016-10-30T01:07:29.831Z,99.99
2016-10-30T01:08:29.820Z,99.99
2016-10-30T01:09:29.799Z,99.99
2016-10-30T01:10:29.785Z,99.99
2016-10-30T01:11:29.768Z,99.99
2016-10-30T01:12:29.751Z,99.99
2016-10-30T01:13:29.735Z,99.99
2016-10-30T01:14:29.716Z,99.99
2016-10-30T01:15:29.703Z,99.99
2016-10-30T01:16:29.686Z,99.99
2016-10-30T01:17:29.670Z,99.99
2016-10-30T01:18:29.656Z,99.99
2016-10-30T01:19:29.673Z,99.99
2016-10-30T01:20:29.619Z,99.99
2016-10-30T01:21:29.604Z,99.99
2016-10-30T01:22:29.599Z,99.99
2016-10-30T01:23:29.574Z,99.99
2016-10-30T01:24:29.868Z,99.99
2016-10-30T01:25:29.540Z,99.99
2016-10-30T01:26:29.528Z,99.99
2016-10-30T01:27:29.515Z,99.99
2016-10-30T01:28:29.545Z,99.99
2016-10-30T01:29:29.476Z,99.99
2016-10-30T01:30:29.458Z,99.99
2016-10-30T01:31:29.444Z,99.99
2016-10-30T01:32:29.741Z,99.99
2016-10-30T01:33:29.564Z,99.99
2016-10-30T01:34:29.709Z,99.99
2016-10-30T01:35:29.688Z,99.99
2016-10-30T01:36:29.361Z,99.99
2016-10-30T01:37:29.348Z,99.99
2016-10-30T01:38:29.334Z,99.99
2016-10-30T01:39:29.628Z,99.99
2016-10-30T01:40:29.299Z,99.99
2016-10-30T01:41:29.285Z,99.99
2016-10-30T01:42:29.264Z,99.99
2016-10-30T01:43:29.284Z,99.99
2016-10-30T01:44:29.238Z,99.99
2016-10-30T01:45:29.220Z,99.99
2016-10-30T01:46:29.203Z,99.99
2016-10-30T01:47:29.189Z,99.99
2016-10-30T01:48:29.172Z,99.99
2016-10-30T01:49:29.160Z,99.99
2016-10-30T01:50:29.142Z,99.99
2016-10-30T01:51:29.127Z,99.99
2016-10-30T01:52:29.116Z,99.99
2016-10-30T01:53:29.096Z,99.99
2016-10-30T01:54:29.075Z,99.99
2016-10-30T01:55:29.060Z,99.99
2016-10-30T01:56:29.047Z,99.99
2016-10-30T01:57:29.037Z,99.99
2016-10-30T01:58:29.213Z,99.99
2016-10-30T01:59:29.008Z,99.99
2016-10-30T02:00:28.990Z,99.99
2016-10-30T02:01:28.967Z,99.99
2016-10-30T02:02:28.950Z,99.99
2016-10-30T02:03:29.245Z,99.99
2016-10-30T02:04:28.923Z,99.99
2016-10-30T02:05:28.907Z,99.99
2016-10-30T02:06:28.886Z,99.99
2016-10-30T02:07:41.602Z,99.99
2016-10-30T02:08:28.847Z,99.99
2016-10-30T02:09:28.831Z,99.99
2016-10-30T02:10:28.819Z,99.99
2016-10-30T02:11:28.800Z,99.99
2016-10-30T02:12:28.783Z,99.99
2016-10-30T02:13:28.768Z,99.99
2016-10-30T02:14:28.752Z,99.99
2016-10-30T02:15:28.743Z,99.99
2016-10-30T02:16:28.721Z,99.99
2016-10-30T02:17:28.705Z,99.99
2016-10-30T02:18:28.688Z,99.99
2016-10-30T02:19:28.673Z,99.99
2016-10-30T02:20:28.657Z,99.99
2016-10-30T02:21:28.676Z,99.99
2016-10-30T02:22:28.625Z,99.99
2016-10-30T02:23:28.607Z,99.99
2016-10-30T02:24:28.593Z,99.99
2016-10-30T02:25:28.574Z,99.99
2016-10-30T02:26:28.560Z,99.99
2016-10-30T02:27:28.549Z,99.99
2016-10-30T02:28:28.529Z,99.99
2016-10-30T02:29:28.822Z,99.99
2016-10-30T02:30:28.494Z,99.99
2016-10-30T02:31:28.481Z,99.99
2016-10-30T02:32:28.463Z,99.99
2016-10-30T02:33:28.444Z,99.99
2016-10-30T02:34:28.431Z,99.99
2016-10-30T02:35:28.413Z,99.99
2016-10-30T02:36:28.403Z,99.99
2016-10-30T02:37:28.694Z,99.99
2016-10-30T02:38:28.411Z,99.99
2016-10-30T02:39:28.350Z,99.99
2016-10-30T02:40:28.335Z,99.99
2016-10-30T02:41:28.321Z,99.99
2016-10-30T02:42:28.306Z,99.99
2016-10-30T02:43:28.325Z,99.99
2016-10-30T02:44:28.269Z,99.99
2016-10-30T02:45:28.254Z,99.99
2016-10-30T02:46:28.237Z,99.99
2016-10-30T02:47:28.222Z,99.99
2016-10-30T02:48:28.203Z,99.99
2016-10-30T02:49:28.342Z,99.99
2016-10-30T02:50:28.173Z,99.99
2016-10-30T02:51:28.164Z,99.99
2016-10-30T02:52:28.141Z,99.99
2016-10-30T02:53:28.127Z,99.99
2016-10-30T02:54:28.110Z,99.99
2016-10-30T02:55:28.091Z,99.99
2016-10-30T02:56:28.385Z,99.99
2016-10-30T02:57:28.061Z,99.99
2016-10-30T02:58:28.042Z,99.99
2016-10-30T02:59:28.028Z,99.99
2016-10-30T03:00:28.008Z,99.99
2016-10-30T03:01:27.993Z,99.99
2016-10-30T03:02:27.977Z,99.99
2016-10-30T03:03:27.963Z,99.99
2016-10-30T03:04:27.944Z,99.99
2016-10-30T03:05:27.929Z,99.99
2016-10-30T03:06:27.947Z,99.99
2016-10-30T03:07:27.894Z,99.99
2016-10-30T03:08:27.884Z,99.99
2016-10-30T03:09:27.863Z,99.99
2016-10-30T03:10:27.848Z,99.99
2016-10-30T03:11:27.828Z,99.99
2016-10-30T03:12:27.816Z,99.99
2016-10-30T03:13:28.116Z,99.99
2016-10-30T03:14:27.783Z,99.99
2016-10-30T03:15:27.768Z,99.99
2016-10-30T03:16:27.748Z,99.99
2016-10-30T03:17:27.731Z,99.99
2016-10-30T03:18:27.717Z,99.99
2016-10-30T03:19:27.697Z,99.99
2016-10-30T03:20:27.682Z,99.99
2016-10-30T03:21:28.021Z,99.99
2016-10-30T03:22:27.647Z,99.99
2016-10-30T03:23:27.631Z,99.99
2016-10-30T03:24:27.627Z,99.99
2016-10-30T03:25:27.600Z,99.99
2016-10-30T03:26:27.582Z,99.99
2016-10-30T03:27:27.570Z,99.99
2016-10-30T03:28:27.550Z,99.99
2016-10-30T03:29:27.533Z,99.99
2016-10-30T03:30:27.513Z,99.99
2016-10-30T03:31:27.501Z,99.99
2016-10-30T03:32:27.798Z,99.99
2016-10-30T03:33:27.468Z,99.99
2016-10-30T03:34:27.450Z,99.99
2016-10-30T03:35:27.585Z,99.99
2016-10-30T03:36:27.416Z,99.99
2016-10-30T03:37:27.721Z,99.99
2016-10-30T03:38:27.383Z,99.99
2016-10-30T03:39:27.368Z,99.99
2016-10-30T03:40:27.349Z,99.99
2016-10-30T03:41:27.332Z,99.99
2016-10-30T03:42:27.318Z,99.99
2016-10-30T03:43:27.302Z,99.99
2016-10-30T03:44:27.283Z,99.99
2016-10-30T03:45:27.267Z,99.99
2016-10-30T03:46:27.255Z,99.99
2016-10-30T03:47:27.231Z,99.99
2016-10-30T03:48:27.213Z,99.99
2016-10-30T03:49:27.241Z,99.99
2016-10-30T03:50:27.336Z,99.99
2016-10-30T03:51:27.166Z,99.99
2016-10-30T03:52:27.150Z,99.99
2016-10-30T03:53:27.447Z,99.99
2016-10-30T03:54:27.426Z,99.99
2016-10-30T03:55:27.132Z,99.99
2016-10-30T03:56:27.081Z,99.99
2016-10-30T03:57:27.063Z,99.99
2016-10-30T03:58:27.256Z,99.99
2016-10-30T03:59:27.031Z,99.99
2016-10-30T04:00:27.015Z,99.99
2016-10-30T04:01:27.309Z,99.99
2016-10-30T04:02:26.984Z,99.99
2016-10-30T04:03:26.961Z,99.99
2016-10-30T04:04:26.946Z,99.99
2016-10-30T04:05:26.928Z,99.99
2016-10-30T04:06:26.912Z,99.99
2016-10-30T04:07:27.208Z,99.99
2016-10-30T04:08:26.878Z,99.99
2016-10-30T04:09:26.865Z,99.99
2016-10-30T04:10:26.848Z,99.99
2016-10-30T04:11:27.143Z,99.99
2016-10-30T04:12:26.815Z,99.99
2016-10-30T04:13:26.797Z,99.99
2016-10-30T04:14:26.778Z,99.99
2016-10-30T04:15:26.775Z,99.99
2016-10-30T04:16:26.748Z,99.99
2016-10-30T04:17:26.727Z,99.99
2016-10-30T04:18:26.713Z,99.99
2016-10-30T04:19:26.692Z,99.99
2016-10-30T04:20:26.680Z,99.99
2016-10-30T04:21:26.664Z,99.99
2016-10-30T04:22:26.649Z,99.99
2016-10-30T04:23:26.626Z,99.99
2016-10-30T04:24:26.608Z,99.99
2016-10-30T04:25:26.595Z,99.99
2016-10-30T04:26:26.578Z,99.99
2016-10-30T04:27:26.562Z,99.99
2016-10-30T04:28:26.548Z,99.99
2016-10-30T04:29:26.525Z,99.99
2016-10-30T04:30:26.509Z,99.99
2016-10-30T04:31:26.492Z,99.99
2016-10-30T04:32:26.786Z,99.99
2016-10-30T04:33:26.467Z,99.99
2016-10-30T04:34:26.757Z,99.99
2016-10-30T04:35:26.738Z,99.99
2016-10-30T04:36:26.412Z,99.99
2016-10-30T04:37:26.395Z,99.99
2016-10-30T04:38:26.377Z,99.99
2016-10-30T04:39:26.358Z,99.99
2016-10-30T04:40:26.341Z,99.99
2016-10-30T04:41:26.324Z,99.99
2016-10-30T04:42:26.317Z,99.99
2016-10-30T04:43:26.290Z,99.99
2016-10-30T04:44:26.278Z,99.99
2016-10-30T04:45:26.262Z,99.99
2016-10-30T04:46:26.395Z,99.99
2016-10-30T04:47:26.223Z,99.99
2016-10-30T04:48:26.207Z,99.99
2016-10-30T04:49:26.197Z,99.99
2016-10-30T04:50:26.188Z,99.99
2016-10-30T04:51:26.160Z,99.99
2016-10-30T04:52:26.136Z,99.99
2016-10-30T04:53:26.124Z,99.99
2016-10-30T04:54:26.104Z,99.99
2016-10-30T04:55:26.404Z,99.99
2016-10-30T04:56:26.068Z,99.99
2016-10-30T04:57:26.057Z,99.99
2016-10-30T04:58:26.361Z,99.99
2016-10-30T04:59:26.339Z,99.99
2016-10-30T05:00:26.005Z,99.99
2016-10-30T05:01:25.989Z,99.99
2016-10-30T05:02:26.003Z,99.99
2016-10-30T05:03:25.951Z,99.99
2016-10-30T05:04:26.246Z,99.99
2016-10-30T05:05:25.922Z,99.99
2016-10-30T05:06:25.903Z,99.99
2016-10-30T05:07:25.884Z,99.99
2016-10-30T05:08:25.866Z,99.99
2016-10-30T05:09:25.847Z,99.99
2016-10-30T05:10:25.834Z,99.99
2016-10-30T05:11:25.814Z,99.99
2016-10-30T05:12:25.797Z,99.99
2016-10-30T05:13:25.781Z,99.99
2016-10-30T05:14:25.763Z,99.99
2016-10-30T05:15:25.746Z,99.99
2016-10-30T05:16:25.779Z,99.99
2016-10-30T05:17:25.715Z,99.99
2016-10-30T05:18:25.696Z,99.99
2016-10-30T05:19:25.687Z,99.99
2016-10-30T05:20:25.665Z,99.99
2016-10-30T05:21:25.954Z,99.99
2016-10-30T05:22:25.633Z,99.99
2016-10-30T05:23:25.611Z,99.99
2016-10-30T05:24:25.596Z,99.99
2016-10-30T05:25:25.575Z,99.99
2016-10-30T05:26:25.870Z,99.99
2016-10-30T05:27:25.540Z,99.99
2016-10-30T05:28:25.519Z,99.99
2016-10-30T05:29:25.504Z,99.99
2016-10-30T05:30:25.495Z,99.99
2016-10-30T05:31:25.476Z,99.99
2016-10-30T05:32:25.508Z,99.99
2016-10-30T05:33:25.749Z,99.99
2016-10-30T05:34:25.735Z,99.99
2016-10-30T05:35:25.404Z,99.99
2016-10-30T05:36:25.383Z,99.99
2016-10-30T05:37:25.521Z,99.99
2016-10-30T05:38:25.666Z,99.99
2016-10-30T05:39:25.331Z,99.99
2016-10-30T05:40:25.316Z,99.99
2016-10-30T05:41:25.299Z,99.99
2016-10-30T05:42:25.280Z,99.99
2016-10-30T05:43:25.266Z,99.99
2016-10-30T05:44:25.246Z,99.99
2016-10-30T05:45:25.232Z,99.99
2016-10-30T05:46:25.213Z,99.99
2016-10-30T05:47:25.209Z,99.99
2016-10-30T05:48:25.175Z,99.99
2016-10-30T05:49:25.160Z,99.99
2016-10-30T05:50:25.145Z,99.99
2016-10-30T05:51:25.127Z,99.99
2016-10-30T05:52:25.255Z,99.99
2016-10-30T05:53:25.089Z,99.99
2016-10-30T05:54:25.071Z,99.99
2016-10-30T05:55:25.053Z,99.99
2016-10-30T05:56:25.037Z,99.99
2016-10-30T05:57:25.025Z,99.99
2016-10-30T05:58:25.207Z,99.99
2016-10-30T05:59:24.987Z,99.99
2016-10-30T06:00:24.965Z,99.99
2016-10-30T06:01:24.949Z,99.99
2016-10-30T06:02:24.973Z,99.99
2016-10-30T06:03:24.918Z,99.99
2016-10-30T06:04:24.898Z,99.99
2016-10-30T06:05:24.881Z,99.99
2016-10-30T06:06:24.861Z,99.99
2016-10-30T06:07:24.846Z,99.99
2016-10-30T06:08:24.831Z,99.99
2016-10-30T06:09:25.124Z,99.99
2016-10-30T06:10:24.790Z,99.99
2016-10-30T06:11:24.777Z,99.99
2016-10-30T06:12:24.757Z,99.99
2016-10-30T06:13:24.742Z,99.99
2016-10-30T06:14:24.725Z,99.99
2016-10-30T06:15:24.704Z,99.99
2016-10-30T06:16:24.692Z,99.99
2016-10-30T06:17:24.670Z,99.99
2016-10-30T06:18:24.654Z,99.99
2016-10-30T06:19:24.640Z,99.99
2016-10-30T06:20:24.620Z,99.99
2016-10-30T06:21:24.602Z,99.99
2016-10-30T06:22:24.585Z,99.99
2016-10-30T06:23:24.758Z,99.99
2016-10-30T06:24:24.549Z,99.99
2016-10-30T06:25:24.530Z,99.99
2016-10-30T06:26:24.832Z,99.99
2016-10-30T06:27:24.496Z,99.99
2016-10-30T06:28:24.478Z,99.99
2016-10-30T06:29:24.778Z,99.99
2016-10-30T06:30:24.447Z,99.99
2016-10-30T06:31:24.427Z,99.99
2016-10-30T06:32:24.414Z,99.99
2016-10-30T06:33:24.390Z,99.99
2016-10-30T06:34:24.374Z,99.99
2016-10-30T06:35:24.674Z,99.99
2016-10-30T06:36:24.653Z,99.99
2016-10-30T06:37:24.329Z,99.99
2016-10-30T06:38:24.305Z,99.99
2016-10-30T06:39:24.286Z,99.99
2016-10-30T06:40:24.270Z,99.99
2016-10-30T06:41:24.254Z,99.99
2016-10-30T06:42:24.236Z,99.99
2016-10-30T06:43:24.370Z,99.99
2016-10-30T06:44:24.515Z,99.99
2016-10-30T06:45:24.184Z,99.99
2016-10-30T06:46:24.488Z,99.99
2016-10-30T06:47:24.155Z,99.99
2016-10-30T06:48:24.147Z,99.99
2016-10-30T06:49:24.167Z,99.99
2016-10-30T06:50:24.149Z,99.99
2016-10-30T06:51:24.395Z,99.99
2016-10-30T06:52:24.066Z,99.99
2016-10-30T06:53:24.362Z,99.99
2016-10-30T06:54:24.036Z,99.99
2016-10-30T06:55:24.012Z,99.99
2016-10-30T06:56:24.001Z,99.99
2016-10-30T06:57:23.992Z,99.99
2016-10-30T06:58:24.002Z,99.99
2016-10-30T06:59:23.945Z,99.99
2016-10-30T07:00:23.927Z,99.99
2016-10-30T07:01:23.912Z,99.99
2016-10-30T07:02:23.892Z,99.99
2016-10-30T07:03:23.876Z,99.99
2016-10-30T07:04:23.860Z,99.99
2016-10-30T07:05:23.838Z,99.99
2016-10-30T07:06:23.826Z,99.99
2016-10-30T07:07:23.809Z,99.99
2016-10-30T07:08:23.792Z,99.99
2016-10-30T07:09:24.104Z,99.99
2016-10-30T07:10:23.758Z,99.99
2016-10-30T07:11:23.741Z,99.99
2016-10-30T07:12:24.086Z,99.99
2016-10-30T07:13:23.709Z,99.99
2016-10-30T07:14:23.693Z,99.99
2016-10-30T07:15:23.675Z,99.99
2016-10-30T07:16:23.656Z,99.99
2016-10-30T07:17:23.955Z,99.99
2016-10-30T07:18:23.621Z,99.99
2016-10-30T07:19:23.918Z,99.99
2016-10-30T07:20:23.590Z,99.99
2016-10-30T07:21:23.572Z,99.99
2016-10-30T07:22:23.557Z,99.99
2016-10-30T07:23:23.538Z,99.99
2016-10-30T07:24:23.524Z,99.99
2016-10-30T07:25:23.821Z,99.99
2016-10-30T07:26:23.492Z,99.99
2016-10-30T07:27:23.471Z,99.99
2016-10-30T07:28:23.769Z,99.99
2016-10-30T07:29:23.442Z,99.99
2016-10-30T07:30:23.422Z,99.99
2016-10-30T07:31:23.725Z,99.99
2016-10-30T07:32:23.394Z,99.99
2016-10-30T07:33:23.382Z,99.99
2016-10-30T07:34:23.355Z,99.99
2016-10-30T07:35:23.378Z,99.99
2016-10-30T07:36:23.326Z,99.99
2016-10-30T07:37:23.307Z,99.99
2016-10-30T07:38:23.290Z,99.99
2016-10-30T07:39:23.276Z,99.99
2016-10-30T07:40:23.262Z,99.99
2016-10-30T07:41:23.555Z,99.99
2016-10-30T07:42:23.222Z,99.99
2016-10-30T07:43:23.535Z,99.99
2016-10-30T07:44:23.341Z,99.99
2016-10-30T07:45:23.179Z,99.99
2016-10-30T07:46:23.158Z,99.99
2016-10-30T07:47:23.144Z,99.99
2016-10-30T07:48:23.131Z,99.99
2016-10-30T07:49:23.474Z,99.99
2016-10-30T07:50:23.091Z,99.99
2016-10-30T07:51:23.085Z,99.99
2016-10-30T07:52:23.062Z,99.99
2016-10-30T07:53:23.043Z,99.99
2016-10-30T07:54:23.079Z,99.99
2016-10-30T07:55:23.333Z,99.99
2016-10-30T07:56:23.317Z,99.99
2016-10-30T07:57:23.000Z,99.99
2016-10-30T07:58:22.966Z,99.99
2016-10-30T07:59:23.465Z,99.99
2016-10-30T08:00:23.255Z,99.99
2016-10-30T08:01:22.915Z,99.99
2016-10-30T08:02:22.910Z,99.99
2016-10-30T08:03:22.947Z,99.99
2016-10-30T08:04:22.869Z,99.99
2016-10-30T08:05:22.873Z,99.99
2016-10-30T08:06:23.160Z,99.99
2016-10-30T08:07:22.835Z,99.99
2016-10-30T08:08:22.854Z,99.99
2016-10-30T08:09:23.096Z,99.99
2016-10-30T08:10:22.770Z,99.99
2016-10-30T08:11:22.753Z,99.99
2016-10-30T08:12:22.757Z,99.99
2016-10-30T08:13:22.728Z,99.99
2016-10-30T08:14:22.710Z,99.99
2016-10-30T08:15:23.001Z,99.99
2016-10-30T08:16:22.677Z,99.99
2016-10-30T08:17:22.657Z,99.99
2016-10-30T08:18:22.649Z,99.99
2016-10-30T08:19:22.627Z,99.99
2016-10-30T08:20:22.614Z,99.99
2016-10-30T08:21:22.620Z,99.99
2016-10-30T08:22:22.651Z,99.99
2016-10-30T08:23:22.568Z,99.99
2016-10-30T08:24:22.547Z,99.99
2016-10-30T08:25:22.532Z,99.99
2016-10-30T08:26:22.517Z,99.99
2016-10-30T08:27:22.815Z,99.99
2016-10-30T08:28:22.540Z,99.99
2016-10-30T08:29:22.472Z,99.99
2016-10-30T08:30:22.527Z,99.99
2016-10-30T08:31:22.445Z,99.99
2016-10-30T08:32:22.432Z,99.99
2016-10-30T08:33:22.412Z,99.99
2016-10-30T08:34:22.400Z,99.99
2016-10-30T08:35:22.694Z,99.99
2016-10-30T08:36:22.681Z,99.99
2016-10-30T08:37:22.666Z,99.99
2016-10-30T08:38:22.339Z,99.99
2016-10-30T08:39:22.321Z,99.99
2016-10-30T08:40:22.309Z,99.99
2016-10-30T08:41:22.289Z,99.99
2016-10-30T08:42:22.278Z,99.99
2016-10-30T08:43:22.575Z,99.99
2016-10-30T08:44:22.563Z,99.99
2016-10-30T08:45:22.382Z,99.99
2016-10-30T08:46:22.224Z,99.99
2016-10-30T08:47:22.518Z,99.99
2016-10-30T08:48:22.191Z,99.99
2016-10-30T08:49:22.174Z,99.99
2016-10-30T08:50:22.167Z,99.99
2016-10-30T08:51:22.142Z,99.99
2016-10-30T08:52:22.133Z,99.99
2016-10-30T08:53:22.121Z,99.99
2016-10-30T08:54:22.100Z,99.99
2016-10-30T08:55:22.095Z,99.99
2016-10-30T08:56:22.078Z,99.99
2016-10-30T08:57:22.056Z,99.99
2016-10-30T08:58:22.095Z,99.99
2016-10-30T08:59:22.030Z,99.99
2016-10-30T09:00:22.016Z,99.99
2016-10-30T09:01:22.000Z,99.99
2016-10-30T09:02:22.300Z,99.99
2016-10-30T09:03:21.973Z,99.99
2016-10-30T09:04:21.958Z,99.99
2016-10-30T09:05:21.944Z,99.99
2016-10-30T09:06:21.929Z,99.99
2016-10-30T09:07:21.915Z,99.99
2016-10-30T09:08:21.903Z,99.99
2016-10-30T09:09:21.889Z,99.99
2016-10-30T09:10:21.879Z,99.99
2016-10-30T09:11:21.858Z,99.99
2016-10-30T09:12:21.843Z,99.99
2016-10-30T09:13:21.837Z,99.99
2016-10-30T09:14:21.819Z,99.99
2016-10-30T09:15:21.804Z,99.99
2016-10-30T09:16:21.789Z,99.99
2016-10-30T09:17:21.777Z,99.99
2016-10-30T09:18:21.772Z,99.99
2016-10-30T09:19:21.750Z,99.99
2016-10-30T09:20:21.743Z,99.99
2016-10-30T09:21:22.035Z,99.99
2016-10-30T09:22:21.759Z,99.99
2016-10-30T09:23:22.009Z,99.99
2016-10-30T09:24:21.992Z,99.99
2016-10-30T09:25:21.671Z,99.99
2016-10-30T09:26:21.653Z,99.99
2016-10-30T09:27:21.637Z,99.99
2016-10-30T09:28:21.939Z,99.99
2016-10-30T09:29:21.926Z,99.99
2016-10-30T09:30:21.912Z,99.99
2016-10-30T09:31:21.583Z,99.99
2016-10-30T09:32:21.569Z,99.99
2016-10-30T09:33:21.608Z,99.99
2016-10-30T09:34:21.543Z,99.99
2016-10-30T09:35:21.583Z,99.99
2016-10-30T09:36:21.522Z,99.99
2016-10-30T09:37:21.508Z,99.99
2016-10-30T09:38:21.491Z,99.99
2016-10-30T09:39:21.476Z,99.99
2016-10-30T09:40:21.479Z,99.99
2016-10-30T09:41:21.500Z,99.99
2016-10-30T09:42:21.449Z,99.99
2016-10-30T09:43:21.744Z,99.99
2016-10-30T09:44:21.417Z,99.99
2016-10-30T09:45:21.407Z,99.99
2016-10-30T09:46:21.398Z,99.99
2016-10-30T09:47:21.690Z,99.99
2016-10-30T09:48:21.400Z,99.99
2016-10-30T09:49:21.347Z,99.99
2016-10-30T09:50:21.335Z,99.99
2016-10-30T09:51:21.470Z,99.99
2016-10-30T09:52:21.308Z,99.99
2016-10-30T09:53:21.621Z,99.99
2016-10-30T09:54:21.286Z,99.99
2016-10-30T09:55:21.272Z,99.99
2016-10-30T09:56:21.259Z,99.99
2016-10-30T09:57:21.245Z,99.99
2016-10-30T09:58:21.233Z,99.99
2016-10-30T09:59:21.423Z,99.99
2016-10-30T10:00:21.209Z,99.99
2016-10-30T10:01:21.198Z,99.99
2016-10-30T10:02:21.184Z,99.99
2016-10-30T10:03:21.167Z,99.99
2016-10-30T10:04:21.468Z,99.99
2016-10-30T10:05:21.145Z,99.99
2016-10-30T10:06:21.130Z,99.99
2016-10-30T10:07:21.437Z,99.99
2016-10-30T10:08:21.108Z,99.99
2016-10-30T10:09:21.095Z,99.99
2016-10-30T10:10:21.084Z,99.99
2016-10-30T10:11:21.072Z,99.99
2016-10-30T10:12:21.056Z,99.99
2016-10-30T10:13:21.049Z,99.99
2016-10-30T10:14:21.345Z,99.99
2016-10-30T10:15:21.020Z,99.99
2016-10-30T10:16:21.007Z,99.99
2016-10-30T10:17:21.008Z,99.99
2016-10-30T10:18:20.987Z,99.99
2016-10-30T10:19:21.282Z,99.99
2016-10-30T10:20:20.966Z,99.99
2016-10-30T10:21:20.946Z,99.99
2016-10-30T10:22:20.932Z,99.99
2016-10-30T10:23:20.925Z,99.99
2016-10-30T10:24:20.914Z,99.99
2016-10-30T10:25:20.897Z,99.99
2016-10-30T10:26:20.893Z,99.99
2016-10-30T10:27:20.886Z,99.99
2016-10-30T10:28:20.869Z,99.99
2016-10-30T10:29:20.862Z,99.99
2016-10-30T10:30:20.841Z,99.99
2016-10-30T10:31:20.832Z,99.99
2016-10-30T10:32:20.825Z,99.99
2016-10-30T10:33:21.135Z,99.99
2016-10-30T10:34:20.792Z,99.99
2016-10-30T10:35:20.785Z,99.99
2016-10-30T10:36:20.777Z,99.99
2016-10-30T10:37:20.775Z,99.99
2016-10-30T10:38:20.747Z,99.99
2016-10-30T10:39:20.732Z,99.99
2016-10-30T10:40:20.738Z,99.99
2016-10-30T10:41:20.713Z,99.99
2016-10-30T10:42:20.703Z,99.99
2016-10-30T10:43:20.690Z,99.99
2016-10-30T10:44:20.723Z,99.99
2016-10-30T10:45:20.664Z,99.99
2016-10-30T10:46:20.653Z,99.99
2016-10-30T10:47:20.804Z,99.99
2016-10-30T10:48:20.637Z,99.99
2016-10-30T10:49:20.617Z,99.99
2016-10-30T10:50:20.602Z,99.99
2016-10-30T10:51:20.592Z,99.99
2016-10-30T10:52:20.735Z,99.99
2016-10-30T10:53:20.576Z,99.99
2016-10-30T10:54:20.562Z,99.99
2016-10-30T10:55:20.584Z,99.99
2016-10-30T10:56:20.543Z,99.99
2016-10-30T10:57:20.685Z,99.99
2016-10-30T10:58:20.522Z,99.99
2016-10-30T10:59:20.508Z,99.99
2016-10-30T11:00:20.497Z,99.99
2016-10-30T11:01:20.484Z,99.99
2016-10-30T11:02:20.726Z,99.99
2016-10-30T11:03:20.473Z,99.99
2016-10-30T11:04:20.456Z,99.99
2016-10-30T11:05:20.442Z,99.99
2016-10-30T11:06:20.436Z,99.99
2016-10-30T11:07:20.462Z,99.99
2016-10-30T11:08:20.415Z,99.99
2016-10-30T11:09:20.401Z,99.99
2016-10-30T11:10:20.392Z,99.99
2016-10-30T11:11:20.385Z,99.99
2016-10-30T11:12:20.519Z,99.99
2016-10-30T11:13:20.672Z,99.99
2016-10-30T11:14:20.349Z,99.99
2016-10-30T11:15:20.344Z,99.99
2016-10-30T11:16:20.332Z,99.99
2016-10-30T11:17:20.520Z,99.99
2016-10-30T11:18:20.314Z,99.99
2016-10-30T11:19:20.322Z,99.99
2016-10-30T11:20:20.598Z,99.99
2016-10-30T11:21:20.277Z,99.99
2016-10-30T11:22:20.284Z,99.99
2016-10-30T11:23:20.260Z,99.99
2016-10-30T11:24:20.256Z,99.99
2016-10-30T11:25:20.237Z,99.99
2016-10-30T11:26:20.231Z,99.99
2016-10-30T11:27:20.238Z,99.99
2016-10-30T11:28:20.240Z,99.99
2016-10-30T11:29:20.196Z,99.99
2016-10-30T11:30:20.192Z,99.99
2016-10-30T11:31:20.180Z,99.99
2016-10-30T11:32:20.629Z,99.99
2016-10-30T11:33:20.160Z,99.99
2016-10-30T11:34:20.357Z,99.99
2016-10-30T11:35:20.144Z,99.99
2016-10-30T11:36:20.446Z,99.99
2016-10-30T11:37:20.266Z,99.99
2016-10-30T11:38:20.104Z,99.99
2016-10-30T11:39:20.103Z,99.99
2016-10-30T11:40:20.094Z,99.99
2016-10-30T11:41:20.079Z,99.99
2016-10-30T11:42:20.068Z,99.99
2016-10-30T11:43:20.063Z,99.99
2016-10-30T11:44:20.055Z,99.99
2016-10-30T11:45:20.041Z,99.99
2016-10-30T11:46:20.358Z,99.99
2016-10-30T11:47:20.021Z,99.99
2016-10-30T11:48:20.023Z,99.99
2016-10-30T11:49:20.003Z,99.99
2016-10-30T11:50:20.003Z,99.99
2016-10-30T11:51:19.987Z,99.99
2016-10-30T11:52:19.978Z,99.99
2016-10-30T11:53:19.976Z,99.99
2016-10-30T11:54:19.971Z,99.99
2016-10-30T11:55:19.960Z,99.99
2016-10-30T11:56:20.269Z,99.99
2016-10-30T11:57:20.269Z,99.99
2016-10-30T11:58:19.942Z,99.99
2016-10-30T11:59:20.140Z,99.99
2016-10-30T12:00:19.931Z,99.99
2016-10-30T12:01:20.237Z,99.99
2016-10-30T12:02:19.918Z,99.99
2016-10-30T12:03:19.906Z,99.99
2016-10-30T12:04:19.895Z,99.99
2016-10-30T12:05:19.894Z,99.99
2016-10-30T12:06:19.916Z,99.99
2016-10-30T12:07:19.877Z,99.99
2016-10-30T12:08:19.877Z,99.99
2016-10-30T12:09:20.179Z,99.99
2016-10-30T12:10:19.864Z,99.99
2016-10-30T12:11:19.850Z,99.99
2016-10-30T12:12:19.843Z,99.99
2016-10-30T12:13:20.148Z,99.99
2016-10-30T12:14:19.827Z,99.99
2016-10-30T12:15:19.822Z,99.99
2016-10-30T12:16:19.815Z,99.99
2016-10-30T12:17:20.118Z,99.99
2016-10-30T12:18:19.801Z,99.99
2016-10-30T12:19:19.798Z,99.99
2016-10-30T12:20:19.787Z,99.99
2016-10-30T12:21:20.089Z,99.99
2016-10-30T12:22:19.768Z,99.99
2016-10-30T12:23:19.764Z,99.99
2016-10-30T12:24:19.758Z,99.99
2016-10-30T12:25:19.755Z,99.99
2016-10-30T12:26:19.742Z,99.99
2016-10-30T12:27:19.737Z,99.99
2016-10-30T12:28:19.737Z,99.99
2016-10-30T12:29:20.035Z,99.99
2016-10-30T12:30:19.713Z,99.99
2016-10-30T12:31:19.713Z,99.99
2016-10-30T12:32:19.750Z,99.99
2016-10-30T12:33:20.014Z,99.99
2016-10-30T12:34:19.688Z,99.99
2016-10-30T12:35:19.674Z,99.99
2016-10-30T12:36:19.674Z,99.99
2016-10-30T12:37:19.988Z,99.99
2016-10-30T12:38:19.657Z,99.99
2016-10-30T12:39:19.645Z,99.25
2016-10-30T12:40:19.986Z,98
2016-10-30T12:41:19.977Z,95.7
2016-10-30T12:42:19.636Z,93.73
2016-10-30T12:43:19.937Z,92.96
2016-10-30T12:44:19.929Z,90.89
2016-10-30T12:45:19.612Z,91.56
2016-10-30T12:46:19.923Z,90.21
2016-10-30T12:47:19.599Z,88.33
2016-10-30T12:48:19.597Z,84.29
2016-10-30T12:49:19.589Z,86.51
2016-10-30T12:50:19.589Z,86.94
2016-10-30T12:51:19.592Z,86.99
2016-10-30T12:52:19.569Z,89.74